PWSweather.com
Personal Weather Stations
Station Observations
DL5ARK
SonnebergDE

SonnebergDE

Lat: 50.34904861, Lon: 11.18112087

Elevation: 1214

Station Type: Selfmade

http://www.sumbarg.de

High Low Average
Temperature 81.1°F27.3°C 50.9°F10.5°C 66.0°F18.9°C
Dew Point 66.3°F19.1°C 55.1°F12.8°C 60.7°F15.9°C
Winds 7.3 mph 11.7 kmh Calm Calm 1.0 mph SW1.6 kmh SW
Wind Gusts 7.4 mph11.9 kmh -- 1.0 mph1.6 kmh
Humidity 86% 38% 62%
Pressure 30.03 in1016.9 mb 29.93 in1013.5 mb -
Precipitation 0.00 in0.0 mm - -
Hour Temp Dew Point Humidity Winds Wind Gusts Pressure Precip Precip Rate Daily Precip Total
12:00 AM 55.5°F13.1°C 58.4°F14.7°C 82% Calm Calm -- 29.94 in1013.9 mb 0.00 in0.0 mm 0.00 in0.0 mm 0.00 in0.0 mm
12:01 AM 55.6°F13.1°C 58.5°F14.7°C 82% Calm Calm -- 29.94 in1013.9 mb 0.00 in0.0 mm 0.00 in0.0 mm 0.00 in0.0 mm
12:04 AM 55.5°F13.1°C 58.4°F14.7°C 82% Calm Calm -- 29.94 in1013.9 mb 0.00 in0.0 mm 0.00 in0.0 mm 0.00 in0.0 mm
12:06 AM 55.5°F13.1°C 58.5°F14.7°C 82% Calm Calm -- 29.94 in1013.9 mb 0.00 in0.0 mm 0.00 in0.0 mm 0.00 in0.0 mm
12:07 AM 55.5°F13.1°C 58.2°F14.6°C 82% Calm Calm -- 29.94 in1013.9 mb 0.00 in0.0 mm 0.00 in0.0 mm 0.00 in0.0 mm
12:10 AM 55.4°F13.0°C 58.3°F14.6°C 82% Calm Calm -- 29.94 in1013.9 mb 0.00 in0.0 mm 0.00 in0.0 mm 0.00 in0.0 mm
12:13 AM 55.6°F13.1°C 58.3°F14.6°C 82% Calm Calm -- 29.94 in1013.9 mb 0.00 in0.0 mm 0.00 in0.0 mm 0.00 in0.0 mm
12:16 AM 55.6°F13.1°C 58.3°F14.6°C 83% Calm Calm -- 29.94 in1013.9 mb 0.00 in0.0 mm 0.00 in0.0 mm 0.00 in0.0 mm
12:18 AM 55.7°F13.2°C 58.8°F14.9°C 84% Calm Calm -- 29.95 in1014.2 mb 0.00 in0.0 mm 0.00 in0.0 mm 0.00 in0.0 mm
12:19 AM 55.5°F13.1°C 58.6°F14.8°C 83% Calm Calm -- 29.94 in1013.9 mb 0.00 in0.0 mm 0.00 in0.0 mm 0.00 in0.0 mm
12:22 AM 55.7°F13.2°C 58.7°F14.8°C 84% Calm Calm -- 29.96 in1014.6 mb 0.00 in0.0 mm 0.00 in0.0 mm 0.00 in0.0 mm
12:24 AM 55.9°F13.3°C 58.6°F14.8°C 84% Calm Calm -- 29.96 in1014.6 mb 0.00 in0.0 mm 0.00 in0.0 mm 0.00 in0.0 mm
12:25 AM 55.9°F13.3°C 59.0°F15.0°C 84% Calm Calm -- 29.96 in1014.6 mb 0.00 in0.0 mm 0.00 in0.0 mm 0.00 in0.0 mm
12:27 AM 55.9°F13.3°C 58.9°F14.9°C 85% Calm Calm -- 29.96 in1014.6 mb 0.00 in0.0 mm 0.00 in0.0 mm 0.00 in0.0 mm
12:28 AM 56.0°F13.3°C 59.1°F15.1°C 84% Calm Calm -- 29.96 in1014.6 mb 0.00 in0.0 mm 0.00 in0.0 mm 0.00 in0.0 mm
12:31 AM 56.0°F13.3°C 59.0°F15.0°C 85% Calm Calm -- 29.96 in1014.6 mb 0.00 in0.0 mm 0.00 in0.0 mm 0.00 in0.0 mm
12:34 AM 56.0°F13.3°C 58.8°F14.9°C 85% Calm Calm -- 29.96 in1014.6 mb 0.00 in0.0 mm 0.00 in0.0 mm 0.00 in0.0 mm
12:37 AM 55.9°F13.3°C 58.6°F14.8°C 85% Calm Calm -- 29.96 in1014.6 mb 0.00 in0.0 mm 0.00 in0.0 mm 0.00 in0.0 mm
12:39 AM 55.9°F13.3°C 59.0°F15.0°C 85% Calm Calm -- 29.96 in1014.6 mb 0.00 in0.0 mm 0.00 in0.0 mm 0.00 in0.0 mm
12:40 AM 55.9°F13.3°C 58.8°F14.9°C 85% Calm Calm -- 29.96 in1014.6 mb 0.00 in0.0 mm 0.00 in0.0 mm 0.00 in0.0 mm
12:42 AM 56.1°F13.4°C 59.4°F15.2°C 86% Calm Calm -- 29.96 in1014.6 mb 0.00 in0.0 mm 0.00 in0.0 mm 0.00 in0.0 mm
12:43 AM 56.1°F13.4°C 59.0°F15.0°C 85% Calm Calm -- 29.96 in1014.6 mb 0.00 in0.0 mm 0.00 in0.0 mm 0.00 in0.0 mm
12:46 AM 56.0°F13.3°C 59.2°F15.1°C 86% 1.6 mph SE2.6 kmh SE 1.6 mph2.6 kmh 29.96 in1014.6 mb 0.00 in0.0 mm 0.00 in0.0 mm 0.00 in0.0 mm
12:48 AM 56.0°F13.3°C 59.2°F15.1°C 86% 1.2 mph SE1.9 kmh SE 1.2 mph1.9 kmh 29.96 in1014.6 mb 0.00 in0.0 mm 0.00 in0.0 mm 0.00 in0.0 mm
12:49 AM 56.0°F13.3°C 59.0°F15.0°C 86% 1.6 mph SE2.6 kmh SE 1.6 mph2.6 kmh 29.96 in1014.6 mb 0.00 in0.0 mm 0.00 in0.0 mm 0.00 in0.0 mm
12:52 AM 56.0°F13.3°C 59.0°F15.0°C 85% 0.4 mph SE0.6 kmh SE 0.4 mph0.6 kmh 29.96 in1014.6 mb 0.00 in0.0 mm 0.00 in0.0 mm 0.00 in0.0 mm
12:55 AM 55.9°F13.3°C 58.6°F14.8°C 85% 3.2 mph ESE5.1 kmh ESE 3.3 mph5.3 kmh 29.96 in1014.6 mb 0.00 in0.0 mm 0.00 in0.0 mm 0.00 in0.0 mm
12:58 AM 55.9°F13.3°C 58.9°F14.9°C 86% 0.8 mph NNW1.3 kmh NNW 0.8 mph1.3 kmh 29.96 in1014.6 mb 0.00 in0.0 mm 0.00 in0.0 mm 0.00 in0.0 mm
01:01 AM 55.9°F13.3°C 58.5°F14.7°C 85% Calm Calm -- 29.96 in1014.6 mb 0.00 in0.0 mm 0.00 in0.0 mm 0.00 in0.0 mm
01:04 AM 55.7°F13.2°C 59.0°F15.0°C 85% Calm Calm -- 29.96 in1014.6 mb 0.00 in0.0 mm 0.00 in0.0 mm 0.00 in0.0 mm
01:07 AM 55.5°F13.1°C 58.6°F14.8°C 84% Calm Calm -- 29.96 in1014.6 mb 0.00 in0.0 mm 0.00 in0.0 mm 0.00 in0.0 mm
01:10 AM 55.5°F13.1°C 58.8°F14.9°C 85% Calm Calm -- 29.96 in1014.6 mb 0.00 in0.0 mm 0.00 in0.0 mm 0.00 in0.0 mm
01:13 AM 55.4°F13.0°C 58.6°F14.8°C 84% Calm Calm -- 29.96 in1014.6 mb 0.00 in0.0 mm 0.00 in0.0 mm 0.00 in0.0 mm
01:15 AM 55.4°F13.0°C 58.6°F14.8°C 84% Calm Calm -- 29.96 in1014.6 mb 0.00 in0.0 mm 0.00 in0.0 mm 0.00 in0.0 mm
01:16 AM 55.4°F13.0°C 58.9°F14.9°C 84% Calm Calm -- 29.97 in1014.9 mb 0.00 in0.0 mm 0.00 in0.0 mm 0.00 in0.0 mm
01:19 AM 55.4°F13.0°C 58.8°F14.9°C 85% Calm Calm -- 29.96 in1014.6 mb 0.00 in0.0 mm 0.00 in0.0 mm 0.00 in0.0 mm
01:22 AM 55.3°F12.9°C 58.6°F14.8°C 84% Calm Calm -- 29.97 in1014.9 mb 0.00 in0.0 mm 0.00 in0.0 mm 0.00 in0.0 mm
01:25 AM 55.3°F12.9°C 58.6°F14.8°C 84% Calm Calm -- 29.97 in1014.9 mb 0.00 in0.0 mm 0.00 in0.0 mm 0.00 in0.0 mm
01:27 AM 55.4°F13.0°C 58.5°F14.7°C 84% Calm Calm -- 29.97 in1014.9 mb 0.00 in0.0 mm 0.00 in0.0 mm 0.00 in0.0 mm
01:28 AM 55.4°F13.0°C 58.5°F14.7°C 84% Calm Calm -- 29.96 in1014.6 mb 0.00 in0.0 mm 0.00 in0.0 mm 0.00 in0.0 mm
01:31 AM 55.3°F12.9°C 58.6°F14.8°C 84% Calm Calm -- 29.97 in1014.9 mb 0.00 in0.0 mm 0.00 in0.0 mm 0.00 in0.0 mm
01:33 AM 55.4°F13.0°C 58.5°F14.7°C 84% Calm Calm -- 29.96 in1014.6 mb 0.00 in0.0 mm 0.00 in0.0 mm 0.00 in0.0 mm
01:34 AM 55.5°F13.1°C 58.2°F14.6°C 83% Calm Calm -- 29.96 in1014.6 mb 0.00 in0.0 mm 0.00 in0.0 mm 0.00 in0.0 mm
01:36 AM 55.5°F13.1°C 58.4°F14.7°C 84% Calm Calm -- 29.96 in1014.6 mb 0.00 in0.0 mm 0.00 in0.0 mm 0.00 in0.0 mm
01:37 AM 55.5°F13.1°C 57.9°F14.4°C 83% Calm Calm -- 29.96 in1014.6 mb 0.00 in0.0 mm 0.00 in0.0 mm 0.00 in0.0 mm
01:40 AM 55.6°F13.1°C 58.7°F14.8°C 84% 0.4 mph W0.6 kmh W 0.4 mph0.6 kmh 29.97 in1014.9 mb 0.00 in0.0 mm 0.00 in0.0 mm 0.00 in0.0 mm
01:43 AM 55.9°F13.3°C 58.7°F14.8°C 84% 1.6 mph W2.6 kmh W 1.6 mph2.6 kmh 29.96 in1014.6 mb 0.00 in0.0 mm 0.00 in0.0 mm 0.00 in0.0 mm
01:46 AM 55.9°F13.3°C 58.5°F14.7°C 83% Calm Calm -- 29.96 in1014.6 mb 0.00 in0.0 mm 0.00 in0.0 mm 0.00 in0.0 mm
01:48 AM 55.7°F13.2°C 58.4°F14.7°C 84% Calm Calm -- 29.96 in1014.6 mb 0.00 in0.0 mm 0.00 in0.0 mm 0.00 in0.0 mm
01:49 AM 55.9°F13.3°C 58.7°F14.8°C 84% Calm Calm -- 29.96 in1014.6 mb 0.00 in0.0 mm 0.00 in0.0 mm 0.00 in0.0 mm
01:52 AM 55.9°F13.3°C 58.6°F14.8°C 84% Calm Calm -- 29.96 in1014.6 mb 0.00 in0.0 mm 0.00 in0.0 mm 0.00 in0.0 mm
05:44 AM 57.5°F14.2°C 58.5°F14.7°C 85% Calm Calm -- 29.97 in1014.9 mb 0.00 in0.0 mm 0.00 in0.0 mm 0.00 in0.0 mm
05:48 AM 57.0°F13.9°C 58.1°F14.5°C 85% Calm Calm -- 29.96 in1014.6 mb 0.00 in0.0 mm 0.00 in0.0 mm 0.00 in0.0 mm
05:51 AM 56.5°F13.6°C 58.2°F14.6°C 84% Calm Calm -- 29.96 in1014.6 mb 0.00 in0.0 mm 0.00 in0.0 mm 0.00 in0.0 mm
05:54 AM 56.5°F13.6°C 58.2°F14.6°C 84% Calm Calm -- 29.96 in1014.6 mb 0.00 in0.0 mm 0.00 in0.0 mm 0.00 in0.0 mm
05:57 AM 56.5°F13.6°C 58.0°F14.4°C 84% Calm Calm -- 29.96 in1014.6 mb 0.00 in0.0 mm 0.00 in0.0 mm 0.00 in0.0 mm
06:00 AM 57.7°F14.3°C 58.7°F14.8°C 85% Calm Calm -- 29.96 in1014.6 mb 0.00 in0.0 mm 0.00 in0.0 mm 0.00 in0.0 mm
06:03 AM 58.8°F14.9°C 59.7°F15.4°C 86% Calm Calm -- 29.96 in1014.6 mb 0.00 in0.0 mm 0.00 in0.0 mm 0.00 in0.0 mm
06:06 AM 60.1°F15.6°C 60.2°F15.7°C 85% Calm Calm -- 29.97 in1014.9 mb 0.00 in0.0 mm 0.00 in0.0 mm 0.00 in0.0 mm
06:09 AM 59.5°F15.3°C 59.7°F15.4°C 81% Calm Calm -- 29.96 in1014.6 mb 0.00 in0.0 mm 0.00 in0.0 mm 0.00 in0.0 mm
06:12 AM 60.2°F15.7°C 59.9°F15.5°C 80% Calm Calm -- 29.97 in1014.9 mb 0.00 in0.0 mm 0.00 in0.0 mm 0.00 in0.0 mm
06:15 AM 60.5°F15.8°C 60.5°F15.8°C 80% 2.4 mph WSW3.9 kmh WSW 2.4 mph3.9 kmh 29.97 in1014.9 mb 0.00 in0.0 mm 0.00 in0.0 mm 0.00 in0.0 mm
06:18 AM 59.7°F15.4°C 59.9°F15.5°C 78% 0.8 mph W1.3 kmh W 0.8 mph1.3 kmh 29.97 in1014.9 mb 0.00 in0.0 mm 0.00 in0.0 mm 0.00 in0.0 mm
06:21 AM 61.5°F16.4°C 60.2°F15.7°C 79% 0.8 mph WSW1.3 kmh WSW 0.8 mph1.3 kmh 29.97 in1014.9 mb 0.00 in0.0 mm 0.00 in0.0 mm 0.00 in0.0 mm
06:24 AM 60.9°F16.1°C 60.1°F15.6°C 77% 2.0 mph WSW3.2 kmh WSW 2.0 mph3.2 kmh 29.97 in1014.9 mb 0.00 in0.0 mm 0.00 in0.0 mm 0.00 in0.0 mm
06:27 AM 60.0°F15.6°C 59.6°F15.3°C 77% 4.4 mph NNW7.1 kmh NNW 4.5 mph7.2 kmh 29.97 in1014.9 mb 0.00 in0.0 mm 0.00 in0.0 mm 0.00 in0.0 mm
06:30 AM 59.9°F15.5°C 59.6°F15.3°C 77% 2.0 mph W3.2 kmh W 2.0 mph3.2 kmh 29.98 in1015.2 mb 0.00 in0.0 mm 0.00 in0.0 mm 0.00 in0.0 mm
06:33 AM 60.6°F15.9°C 59.8°F15.4°C 77% 0.8 mph NW1.3 kmh NW 0.8 mph1.3 kmh 29.98 in1015.2 mb 0.00 in0.0 mm 0.00 in0.0 mm 0.00 in0.0 mm
06:36 AM 60.0°F15.6°C 59.9°F15.5°C 78% 0.8 mph W1.3 kmh W 0.8 mph1.3 kmh 29.98 in1015.2 mb 0.00 in0.0 mm 0.00 in0.0 mm 0.00 in0.0 mm
06:39 AM 60.0°F15.6°C 60.0°F15.6°C 79% 3.6 mph W5.8 kmh W 3.7 mph6.0 kmh 29.99 in1015.6 mb 0.00 in0.0 mm 0.00 in0.0 mm 0.00 in0.0 mm
06:42 AM 60.4°F15.8°C 60.1°F15.6°C 79% 2.3 mph SW3.7 kmh SW 2.3 mph3.7 kmh 29.98 in1015.2 mb 0.00 in0.0 mm 0.00 in0.0 mm 0.00 in0.0 mm
06:45 AM 60.1°F15.6°C 59.5°F15.3°C 79% 1.5 mph SW2.4 kmh SW 1.6 mph2.6 kmh 29.99 in1015.6 mb 0.00 in0.0 mm 0.00 in0.0 mm 0.00 in0.0 mm
06:48 AM 60.1°F15.6°C 60.0°F15.6°C 79% 1.9 mph SW3.1 kmh SW 2.0 mph3.2 kmh 29.98 in1015.2 mb 0.00 in0.0 mm 0.00 in0.0 mm 0.00 in0.0 mm
06:51 AM 61.4°F16.3°C 59.9°F15.5°C 79% 0.4 mph NW0.6 kmh NW 0.4 mph0.6 kmh 29.99 in1015.6 mb 0.00 in0.0 mm 0.00 in0.0 mm 0.00 in0.0 mm
06:54 AM 62.3°F16.8°C 60.4°F15.8°C 80% 0.4 mph WSW0.6 kmh WSW 0.4 mph0.6 kmh 29.99 in1015.6 mb 0.00 in0.0 mm 0.00 in0.0 mm 0.00 in0.0 mm
06:57 AM 65.2°F18.4°C 61.3°F16.3°C 80% Calm Calm -- 29.99 in1015.6 mb 0.00 in0.0 mm 0.00 in0.0 mm 0.00 in0.0 mm
07:00 AM 64.5°F18.1°C 61.3°F16.3°C 78% 1.2 mph SW1.9 kmh SW 1.2 mph1.9 kmh 29.99 in1015.6 mb 0.00 in0.0 mm 0.00 in0.0 mm 0.00 in0.0 mm
07:03 AM 63.5°F17.5°C 61.1°F16.2°C 75% Calm Calm -- 29.99 in1015.6 mb 0.00 in0.0 mm 0.00 in0.0 mm 0.00 in0.0 mm
07:06 AM 61.9°F16.6°C 60.3°F15.7°C 75% Calm Calm -- 29.99 in1015.6 mb 0.00 in0.0 mm 0.00 in0.0 mm 0.00 in0.0 mm
07:09 AM 62.5°F16.9°C 60.5°F15.8°C 76% 2.0 mph SW3.2 kmh SW 2.0 mph3.2 kmh 29.99 in1015.6 mb 0.00 in0.0 mm 0.00 in0.0 mm 0.00 in0.0 mm
07:12 AM 62.0°F16.7°C 60.4°F15.8°C 76% Calm Calm -- 29.99 in1015.6 mb 0.00 in0.0 mm 0.00 in0.0 mm 0.00 in0.0 mm
07:15 AM 62.2°F16.8°C 60.6°F15.9°C 77% 0.4 mph SSW0.6 kmh SSW 0.4 mph0.6 kmh 29.99 in1015.6 mb 0.00 in0.0 mm 0.00 in0.0 mm 0.00 in0.0 mm
07:18 AM 63.1°F17.3°C 60.9°F16.1°C 77% 2.0 mph SW3.2 kmh SW 2.0 mph3.2 kmh 29.99 in1015.6 mb 0.00 in0.0 mm 0.00 in0.0 mm 0.00 in0.0 mm
07:21 AM 62.0°F16.7°C 60.8°F16.0°C 77% 0.4 mph SW0.6 kmh SW 0.4 mph0.6 kmh 29.99 in1015.6 mb 0.00 in0.0 mm 0.00 in0.0 mm 0.00 in0.0 mm
07:24 AM 61.5°F16.4°C 60.5°F15.8°C 77% Calm Calm -- 29.99 in1015.6 mb 0.00 in0.0 mm 0.00 in0.0 mm 0.00 in0.0 mm
07:27 AM 61.0°F16.1°C 60.6°F15.9°C 77% Calm Calm -- 29.99 in1015.6 mb 0.00 in0.0 mm 0.00 in0.0 mm 0.00 in0.0 mm
07:30 AM 60.9°F16.1°C 60.5°F15.8°C 78% 2.0 mph NNW3.2 kmh NNW 2.0 mph3.2 kmh 29.99 in1015.6 mb 0.00 in0.0 mm 0.00 in0.0 mm 0.00 in0.0 mm
07:33 AM 61.5°F16.4°C 60.5°F15.8°C 79% 1.1 mph NNW1.8 kmh NNW 1.2 mph1.9 kmh 29.99 in1015.6 mb 0.00 in0.0 mm 0.00 in0.0 mm 0.00 in0.0 mm
07:36 AM 61.4°F16.3°C 60.8°F16.0°C 79% 1.2 mph SE1.9 kmh SE 1.2 mph1.9 kmh 29.99 in1015.6 mb 0.00 in0.0 mm 0.00 in0.0 mm 0.00 in0.0 mm
07:39 AM 62.0°F16.7°C 61.2°F16.2°C 80% Calm Calm -- 29.98 in1015.2 mb 0.00 in0.0 mm 0.00 in0.0 mm 0.00 in0.0 mm
07:42 AM 62.2°F16.8°C 60.8°F16.0°C 79% 1.2 mph SSE1.9 kmh SSE 1.2 mph1.9 kmh 29.98 in1015.2 mb 0.00 in0.0 mm 0.00 in0.0 mm 0.00 in0.0 mm
07:45 AM 63.1°F17.3°C 61.3°F16.3°C 79% 1.6 mph SW2.6 kmh SW 1.6 mph2.6 kmh 29.98 in1015.2 mb 0.00 in0.0 mm 0.00 in0.0 mm 0.00 in0.0 mm
07:48 AM 62.7°F17.1°C 61.3°F16.3°C 78% Calm Calm -- 29.99 in1015.6 mb 0.00 in0.0 mm 0.00 in0.0 mm 0.00 in0.0 mm
07:51 AM 63.1°F17.3°C 60.9°F16.1°C 77% 0.4 mph S0.6 kmh S 0.4 mph0.6 kmh 29.99 in1015.6 mb 0.00 in0.0 mm 0.00 in0.0 mm 0.00 in0.0 mm
07:54 AM 63.4°F17.4°C 61.1°F16.2°C 78% 0.4 mph SSE0.6 kmh SSE 0.4 mph0.6 kmh 29.99 in1015.6 mb 0.00 in0.0 mm 0.00 in0.0 mm 0.00 in0.0 mm
07:57 AM 63.3°F17.4°C 61.2°F16.2°C 78% 0.8 mph WSW1.3 kmh WSW 0.8 mph1.3 kmh 29.99 in1015.6 mb 0.00 in0.0 mm 0.00 in0.0 mm 0.00 in0.0 mm
08:00 AM 62.9°F17.2°C 60.9°F16.1°C 77% Calm Calm -- 29.99 in1015.6 mb 0.00 in0.0 mm 0.00 in0.0 mm 0.00 in0.0 mm
08:03 AM 61.9°F16.6°C 60.9°F16.1°C 76% 0.8 mph NNW1.3 kmh NNW 0.8 mph1.3 kmh 29.99 in1015.6 mb 0.00 in0.0 mm 0.00 in0.0 mm 0.00 in0.0 mm
08:06 AM 61.1°F16.2°C 60.9°F16.1°C 77% 0.8 mph S1.3 kmh S 0.8 mph1.3 kmh 29.99 in1015.6 mb 0.00 in0.0 mm 0.00 in0.0 mm 0.00 in0.0 mm
08:09 AM 61.4°F16.3°C 60.9°F16.1°C 78% 1.2 mph SW1.9 kmh SW 1.2 mph1.9 kmh 29.99 in1015.6 mb 0.00 in0.0 mm 0.00 in0.0 mm 0.00 in0.0 mm
08:12 AM 61.3°F16.3°C 60.8°F16.0°C 78% Calm Calm -- 29.99 in1015.6 mb 0.00 in0.0 mm 0.00 in0.0 mm 0.00 in0.0 mm
08:15 AM 60.8°F16.0°C 60.3°F15.7°C 77% Calm Calm -- 29.99 in1015.6 mb 0.00 in0.0 mm 0.00 in0.0 mm 0.00 in0.0 mm
08:18 AM 61.3°F16.3°C 60.8°F16.0°C 78% Calm Calm -- 29.99 in1015.6 mb 0.00 in0.0 mm 0.00 in0.0 mm 0.00 in0.0 mm
08:21 AM 60.5°F15.8°C 60.3°F15.7°C 77% Calm Calm -- 29.99 in1015.6 mb 0.00 in0.0 mm 0.00 in0.0 mm 0.00 in0.0 mm
08:24 AM 61.1°F16.2°C 60.5°F15.8°C 77% Calm Calm -- 29.99 in1015.6 mb 0.00 in0.0 mm 0.00 in0.0 mm 0.00 in0.0 mm
08:27 AM 61.8°F16.6°C 60.8°F16.0°C 78% Calm Calm -- 29.99 in1015.6 mb 0.00 in0.0 mm 0.00 in0.0 mm 0.00 in0.0 mm
08:30 AM 62.3°F16.8°C 61.0°F16.1°C 78% 1.6 mph SE2.6 kmh SE 1.6 mph2.6 kmh 29.98 in1015.2 mb 0.00 in0.0 mm 0.00 in0.0 mm 0.00 in0.0 mm
08:33 AM 62.0°F16.7°C 61.0°F16.1°C 78% Calm Calm -- 29.98 in1015.2 mb 0.00 in0.0 mm 0.00 in0.0 mm 0.00 in0.0 mm
08:36 AM 61.8°F16.6°C 60.5°F15.8°C 76% 0.4 mph S0.6 kmh S 0.4 mph0.6 kmh 29.98 in1015.2 mb 0.00 in0.0 mm 0.00 in0.0 mm 0.00 in0.0 mm
08:39 AM 61.9°F16.6°C 60.7°F15.9°C 76% Calm Calm -- 29.98 in1015.2 mb 0.00 in0.0 mm 0.00 in0.0 mm 0.00 in0.0 mm
08:42 AM 62.2°F16.8°C 60.8°F16.0°C 77% 1.1 mph SE1.8 kmh SE 1.1 mph1.8 kmh 29.98 in1015.2 mb 0.00 in0.0 mm 0.00 in0.0 mm 0.00 in0.0 mm
08:45 AM 62.2°F16.8°C 61.1°F16.2°C 77% Calm Calm -- 29.98 in1015.2 mb 0.00 in0.0 mm 0.00 in0.0 mm 0.00 in0.0 mm
08:48 AM 61.9°F16.6°C 60.6°F15.9°C 76% 0.8 mph NNW1.3 kmh NNW 0.8 mph1.3 kmh 29.97 in1014.9 mb 0.00 in0.0 mm 0.00 in0.0 mm 0.00 in0.0 mm
08:51 AM 62.0°F16.7°C 60.4°F15.8°C 76% 1.2 mph W1.9 kmh W 1.2 mph1.9 kmh 29.97 in1014.9 mb 0.00 in0.0 mm 0.00 in0.0 mm 0.00 in0.0 mm
08:54 AM 62.2°F16.8°C 60.6°F15.9°C 75% Calm Calm -- 29.97 in1014.9 mb 0.00 in0.0 mm 0.00 in0.0 mm 0.00 in0.0 mm
08:57 AM 62.9°F17.2°C 60.7°F15.9°C 75% 1.6 mph SW2.6 kmh SW 1.6 mph2.6 kmh 29.97 in1014.9 mb 0.00 in0.0 mm 0.00 in0.0 mm 0.00 in0.0 mm
09:00 AM 62.8°F17.1°C 61.3°F16.3°C 76% 2.0 mph SW3.2 kmh SW 2.0 mph3.2 kmh 29.97 in1014.9 mb 0.00 in0.0 mm 0.00 in0.0 mm 0.00 in0.0 mm
09:03 AM 62.3°F16.8°C 61.1°F16.2°C 76% 1.1 mph NNW1.8 kmh NNW 1.2 mph1.9 kmh 29.97 in1014.9 mb 0.00 in0.0 mm 0.00 in0.0 mm 0.00 in0.0 mm
09:06 AM 62.4°F16.9°C 60.6°F15.9°C 75% 0.8 mph SW1.3 kmh SW 0.8 mph1.3 kmh 29.97 in1014.9 mb 0.00 in0.0 mm 0.00 in0.0 mm 0.00 in0.0 mm
09:09 AM 62.8°F17.1°C 60.9°F16.1°C 75% 0.4 mph SE0.6 kmh SE 0.4 mph0.6 kmh 29.97 in1014.9 mb 0.00 in0.0 mm 0.00 in0.0 mm 0.00 in0.0 mm
09:12 AM 62.9°F17.2°C 60.4°F15.8°C 74% 1.2 mph ESE1.9 kmh ESE 1.2 mph1.9 kmh 29.97 in1014.9 mb 0.00 in0.0 mm 0.00 in0.0 mm 0.00 in0.0 mm
09:15 AM 62.3°F16.8°C 59.9°F15.5°C 72% Calm Calm -- 29.97 in1014.9 mb 0.00 in0.0 mm 0.00 in0.0 mm 0.00 in0.0 mm
09:18 AM 62.9°F17.2°C 60.2°F15.7°C 74% 1.1 mph ESE1.8 kmh ESE 1.2 mph1.9 kmh 29.97 in1014.9 mb 0.00 in0.0 mm 0.00 in0.0 mm 0.00 in0.0 mm
09:21 AM 63.2°F17.3°C 60.8°F16.0°C 75% 2.8 mph NNW4.5 kmh NNW 2.8 mph4.5 kmh 29.97 in1014.9 mb 0.00 in0.0 mm 0.00 in0.0 mm 0.00 in0.0 mm
09:24 AM 63.6°F17.6°C 60.1°F15.6°C 72% 1.1 mph WSW1.8 kmh WSW 1.1 mph1.8 kmh 29.97 in1014.9 mb 0.00 in0.0 mm 0.00 in0.0 mm 0.00 in0.0 mm
09:27 AM 64.0°F17.8°C 60.3°F15.7°C 72% Calm Calm -- 29.97 in1014.9 mb 0.00 in0.0 mm 0.00 in0.0 mm 0.00 in0.0 mm
09:30 AM 64.7°F18.2°C 60.8°F16.0°C 74% 1.2 mph 1.9 kmh 1.2 mph1.9 kmh 29.97 in1014.9 mb 0.00 in0.0 mm 0.00 in0.0 mm 0.00 in0.0 mm
09:33 AM 64.5°F18.1°C 60.8°F16.0°C 73% 1.6 mph NNW2.6 kmh NNW 1.6 mph2.6 kmh 29.97 in1014.9 mb 0.00 in0.0 mm 0.00 in0.0 mm 0.00 in0.0 mm
09:36 AM 65.0°F18.3°C 60.3°F15.7°C 71% 2.3 mph NNW3.7 kmh NNW 2.3 mph3.7 kmh 29.97 in1014.9 mb 0.00 in0.0 mm 0.00 in0.0 mm 0.00 in0.0 mm
09:39 AM 65.5°F18.6°C 60.6°F15.9°C 71% 1.6 mph SW2.6 kmh SW 1.6 mph2.6 kmh 29.97 in1014.9 mb 0.00 in0.0 mm 0.00 in0.0 mm 0.00 in0.0 mm
09:42 AM 65.9°F18.8°C 61.0°F16.1°C 71% 1.6 mph NNW2.6 kmh NNW 1.6 mph2.6 kmh 29.97 in1014.9 mb 0.00 in0.0 mm 0.00 in0.0 mm 0.00 in0.0 mm
09:45 AM 65.8°F18.8°C 61.2°F16.2°C 72% 2.0 mph W3.2 kmh W 2.0 mph3.2 kmh 29.97 in1014.9 mb 0.00 in0.0 mm 0.00 in0.0 mm 0.00 in0.0 mm
09:48 AM 66.8°F19.3°C 61.1°F16.2°C 71% 4.4 mph NNW7.1 kmh NNW 4.5 mph7.2 kmh 29.97 in1014.9 mb 0.00 in0.0 mm 0.00 in0.0 mm 0.00 in0.0 mm
09:51 AM 66.9°F19.4°C 61.7°F16.5°C 71% 2.8 mph NNW4.5 kmh NNW 2.8 mph4.5 kmh 29.97 in1014.9 mb 0.00 in0.0 mm 0.00 in0.0 mm 0.00 in0.0 mm
09:54 AM 67.4°F19.7°C 61.6°F16.4°C 70% 0.8 mph NW1.3 kmh NW 0.8 mph1.3 kmh 29.97 in1014.9 mb 0.00 in0.0 mm 0.00 in0.0 mm 0.00 in0.0 mm
09:57 AM 68.2°F20.1°C 61.6°F16.4°C 70% 2.3 mph 3.7 kmh 2.3 mph3.7 kmh 29.97 in1014.9 mb 0.00 in0.0 mm 0.00 in0.0 mm 0.00 in0.0 mm
10:00 AM 67.4°F19.7°C 62.6°F17.0°C 70% 1.2 mph NNW1.9 kmh NNW 1.2 mph1.9 kmh 29.97 in1014.9 mb 0.00 in0.0 mm 0.00 in0.0 mm 0.00 in0.0 mm
10:03 AM 68.5°F20.3°C 61.8°F16.6°C 67% Calm Calm -- 29.97 in1014.9 mb 0.00 in0.0 mm 0.00 in0.0 mm 0.00 in0.0 mm
10:06 AM 68.0°F20.0°C 62.1°F16.7°C 67% 0.8 mph WSW1.3 kmh WSW 0.8 mph1.3 kmh 29.97 in1014.9 mb 0.00 in0.0 mm 0.00 in0.0 mm 0.00 in0.0 mm
10:09 AM 67.7°F19.8°C 61.7°F16.5°C 65% 1.6 mph SW2.6 kmh SW 1.6 mph2.6 kmh 29.96 in1014.6 mb 0.00 in0.0 mm 0.00 in0.0 mm 0.00 in0.0 mm
10:12 AM 67.9°F19.9°C 62.1°F16.7°C 65% 1.5 mph SSW2.4 kmh SSW 1.5 mph2.4 kmh 29.96 in1014.6 mb 0.00 in0.0 mm 0.00 in0.0 mm 0.00 in0.0 mm
10:15 AM 67.9°F19.9°C 61.8°F16.6°C 64% Calm Calm -- 29.97 in1014.9 mb 0.00 in0.0 mm 0.00 in0.0 mm 0.00 in0.0 mm
10:18 AM 68.1°F20.1°C 61.8°F16.6°C 64% 0.4 mph NNW0.6 kmh NNW 0.4 mph0.6 kmh 29.96 in1014.6 mb 0.00 in0.0 mm 0.00 in0.0 mm 0.00 in0.0 mm
10:21 AM 68.9°F20.5°C 63.0°F17.2°C 66% 2.4 mph WSW3.9 kmh WSW 2.5 mph4.0 kmh 29.96 in1014.6 mb 0.00 in0.0 mm 0.00 in0.0 mm 0.00 in0.0 mm
10:24 AM 69.1°F20.6°C 64.0°F17.8°C 67% 2.4 mph NNW3.9 kmh NNW 2.4 mph3.9 kmh 29.96 in1014.6 mb 0.00 in0.0 mm 0.00 in0.0 mm 0.00 in0.0 mm
10:27 AM 70.3°F21.3°C 64.1°F17.8°C 66% 3.6 mph SW5.8 kmh SW 3.7 mph6.0 kmh 29.97 in1014.9 mb 0.00 in0.0 mm 0.00 in0.0 mm 0.00 in0.0 mm
10:30 AM 69.4°F20.8°C 63.2°F17.3°C 64% 0.8 mph NNW1.3 kmh NNW 0.8 mph1.3 kmh 29.96 in1014.6 mb 0.00 in0.0 mm 0.00 in0.0 mm 0.00 in0.0 mm
10:33 AM 71.0°F21.7°C 63.9°F17.7°C 64% 0.4 mph SW0.6 kmh SW 0.4 mph0.6 kmh 29.97 in1014.9 mb 0.00 in0.0 mm 0.00 in0.0 mm 0.00 in0.0 mm
10:36 AM 70.0°F21.1°C 62.1°F16.7°C 59% 2.8 mph SW4.5 kmh SW 2.8 mph4.5 kmh 29.97 in1014.9 mb 0.00 in0.0 mm 0.00 in0.0 mm 0.00 in0.0 mm
10:39 AM 72.6°F22.6°C 64.0°F17.8°C 63% 2.0 mph NNW3.2 kmh NNW 2.0 mph3.2 kmh 29.97 in1014.9 mb 0.00 in0.0 mm 0.00 in0.0 mm 0.00 in0.0 mm
10:45 AM 72.7°F22.6°C 64.2°F17.9°C 63% 0.8 mph NNW1.3 kmh NNW 0.8 mph1.3 kmh 29.97 in1014.9 mb 0.00 in0.0 mm 0.00 in0.0 mm 0.00 in0.0 mm
10:48 AM 72.3°F22.4°C 63.8°F17.7°C 61% 1.2 mph SW1.9 kmh SW 1.2 mph1.9 kmh 29.97 in1014.9 mb 0.00 in0.0 mm 0.00 in0.0 mm 0.00 in0.0 mm
10:51 AM 72.2°F22.3°C 64.0°F17.8°C 61% 1.6 mph NNW2.6 kmh NNW 1.6 mph2.6 kmh 29.97 in1014.9 mb 0.00 in0.0 mm 0.00 in0.0 mm 0.00 in0.0 mm
10:54 AM 71.4°F21.9°C 63.5°F17.5°C 60% Calm Calm -- 29.97 in1014.9 mb 0.00 in0.0 mm 0.00 in0.0 mm 0.00 in0.0 mm
10:57 AM 72.5°F22.5°C 64.2°F17.9°C 62% 1.2 mph W1.9 kmh W 1.2 mph1.9 kmh 29.97 in1014.9 mb 0.00 in0.0 mm 0.00 in0.0 mm 0.00 in0.0 mm
11:00 AM 71.2°F21.8°C 62.7°F17.1°C 58% 1.5 mph NNW2.4 kmh NNW 1.5 mph2.4 kmh 29.97 in1014.9 mb 0.00 in0.0 mm 0.00 in0.0 mm 0.00 in0.0 mm
11:03 AM 71.6°F22.0°C 63.4°F17.4°C 60% 3.2 mph W5.1 kmh W 3.3 mph5.3 kmh 29.97 in1014.9 mb 0.00 in0.0 mm 0.00 in0.0 mm 0.00 in0.0 mm
11:06 AM 71.3°F21.8°C 63.8°F17.7°C 61% 1.6 mph SSW2.6 kmh SSW 1.6 mph2.6 kmh 29.97 in1014.9 mb 0.00 in0.0 mm 0.00 in0.0 mm 0.00 in0.0 mm
11:09 AM 70.8°F21.6°C 62.8°F17.1°C 59% 1.6 mph NNW2.6 kmh NNW 1.6 mph2.6 kmh 29.97 in1014.9 mb 0.00 in0.0 mm 0.00 in0.0 mm 0.00 in0.0 mm
11:12 AM 71.6°F22.0°C 63.6°F17.6°C 61% 3.2 mph NNW5.1 kmh NNW 3.2 mph5.1 kmh 29.97 in1014.9 mb 0.00 in0.0 mm 0.00 in0.0 mm 0.00 in0.0 mm
11:15 AM 71.7°F22.1°C 64.2°F17.9°C 61% 1.6 mph NNW2.6 kmh NNW 1.6 mph2.6 kmh 29.97 in1014.9 mb 0.00 in0.0 mm 0.00 in0.0 mm 0.00 in0.0 mm
11:18 AM 72.8°F22.7°C 64.7°F18.2°C 62% 3.6 mph WSW5.8 kmh WSW 3.6 mph5.8 kmh 29.97 in1014.9 mb 0.00 in0.0 mm 0.00 in0.0 mm 0.00 in0.0 mm
11:21 AM 72.5°F22.5°C 64.2°F17.9°C 59% 1.2 mph SW1.9 kmh SW 1.2 mph1.9 kmh 29.96 in1014.6 mb 0.00 in0.0 mm 0.00 in0.0 mm 0.00 in0.0 mm
11:24 AM 74.6°F23.7°C 64.8°F18.2°C 60% Calm Calm -- 29.96 in1014.6 mb 0.00 in0.0 mm 0.00 in0.0 mm 0.00 in0.0 mm
11:27 AM 74.5°F23.6°C 66.1°F18.9°C 61% 2.3 mph NNW3.7 kmh NNW 2.3 mph3.7 kmh 29.96 in1014.6 mb 0.00 in0.0 mm 0.00 in0.0 mm 0.00 in0.0 mm
11:30 AM 75.1°F23.9°C 64.9°F18.3°C 57% 1.2 mph SW1.9 kmh SW 1.2 mph1.9 kmh 29.96 in1014.6 mb 0.00 in0.0 mm 0.00 in0.0 mm 0.00 in0.0 mm
11:33 AM 74.2°F23.4°C 65.4°F18.6°C 57% 0.4 mph NNW0.6 kmh NNW 0.4 mph0.6 kmh 29.96 in1014.6 mb 0.00 in0.0 mm 0.00 in0.0 mm 0.00 in0.0 mm
11:36 AM 74.9°F23.8°C 66.0°F18.9°C 57% 1.6 mph WSW2.6 kmh WSW 1.6 mph2.6 kmh 29.96 in1014.6 mb 0.00 in0.0 mm 0.00 in0.0 mm 0.00 in0.0 mm
11:39 AM 74.6°F23.7°C 66.3°F19.1°C 57% 0.8 mph SSW1.3 kmh SSW 0.8 mph1.3 kmh 29.96 in1014.6 mb 0.00 in0.0 mm 0.00 in0.0 mm 0.00 in0.0 mm
11:42 AM 73.5°F23.1°C 65.3°F18.5°C 54% 5.3 mph NW8.5 kmh NW 5.3 mph8.5 kmh 29.96 in1014.6 mb 0.00 in0.0 mm 0.00 in0.0 mm 0.00 in0.0 mm
11:45 AM 74.3°F23.5°C 65.2°F18.4°C 53% 1.6 mph WNW2.6 kmh WNW 1.6 mph2.6 kmh 29.96 in1014.6 mb 0.00 in0.0 mm 0.00 in0.0 mm 0.00 in0.0 mm
11:48 AM 73.9°F23.3°C 64.7°F18.2°C 52% 1.6 mph NNW2.6 kmh NNW 1.6 mph2.6 kmh 29.96 in1014.6 mb 0.00 in0.0 mm 0.00 in0.0 mm 0.00 in0.0 mm
11:51 AM 73.1°F22.8°C 64.2°F17.9°C 51% 3.2 mph NNW5.1 kmh NNW 3.3 mph5.3 kmh 29.96 in1014.6 mb 0.00 in0.0 mm 0.00 in0.0 mm 0.00 in0.0 mm
11:54 AM 74.0°F23.3°C 63.5°F17.5°C 50% 2.7 mph NNW4.3 kmh NNW 2.9 mph4.7 kmh 29.96 in1014.6 mb 0.00 in0.0 mm 0.00 in0.0 mm 0.00 in0.0 mm
11:57 AM 74.2°F23.4°C 64.5°F18.1°C 51% 2.3 mph NNW3.7 kmh NNW 2.4 mph3.9 kmh 29.96 in1014.6 mb 0.00 in0.0 mm 0.00 in0.0 mm 0.00 in0.0 mm
12:00 PM 72.6°F22.6°C 61.6°F16.4°C 46% 1.6 mph ESE2.6 kmh ESE 1.6 mph2.6 kmh 29.96 in1014.6 mb 0.00 in0.0 mm 0.00 in0.0 mm 0.00 in0.0 mm
12:03 PM 73.1°F22.8°C 63.3°F17.4°C 48% 1.6 mph 2.6 kmh 1.6 mph2.6 kmh 29.96 in1014.6 mb 0.00 in0.0 mm 0.00 in0.0 mm 0.00 in0.0 mm
12:06 PM 73.0°F22.8°C 62.4°F16.9°C 46% 3.2 mph WSW5.1 kmh WSW 3.2 mph5.1 kmh 29.96 in1014.6 mb 0.00 in0.0 mm 0.00 in0.0 mm 0.00 in0.0 mm
12:09 PM 73.4°F23.0°C 62.3°F16.8°C 45% 3.2 mph NW5.1 kmh NW 3.3 mph5.3 kmh 29.96 in1014.6 mb 0.00 in0.0 mm 0.00 in0.0 mm 0.00 in0.0 mm
12:12 PM 74.0°F23.3°C 64.0°F17.8°C 48% 0.8 mph SSW1.3 kmh SSW 0.8 mph1.3 kmh 29.96 in1014.6 mb 0.00 in0.0 mm 0.00 in0.0 mm 0.00 in0.0 mm
12:15 PM 74.1°F23.4°C 64.5°F18.1°C 49% 1.6 mph SSW2.6 kmh SSW 1.6 mph2.6 kmh 29.96 in1014.6 mb 0.00 in0.0 mm 0.00 in0.0 mm 0.00 in0.0 mm
12:18 PM 73.6°F23.1°C 63.0°F17.2°C 48% 2.0 mph SE3.2 kmh SE 2.0 mph3.2 kmh 29.96 in1014.6 mb 0.00 in0.0 mm 0.00 in0.0 mm 0.00 in0.0 mm
12:21 PM 73.4°F23.0°C 63.5°F17.5°C 49% Calm Calm -- 29.96 in1014.6 mb 0.00 in0.0 mm 0.00 in0.0 mm 0.00 in0.0 mm
12:24 PM 74.1°F23.4°C 60.6°F15.9°C 45% 4.0 mph ESE6.4 kmh ESE 4.1 mph6.6 kmh 29.96 in1014.6 mb 0.00 in0.0 mm 0.00 in0.0 mm 0.00 in0.0 mm
12:27 PM 74.3°F23.5°C 59.8°F15.4°C 44% Calm Calm -- 29.96 in1014.6 mb 0.00 in0.0 mm 0.00 in0.0 mm 0.00 in0.0 mm
12:30 PM 73.7°F23.2°C 61.4°F16.3°C 47% 2.0 mph SW3.2 kmh SW 2.0 mph3.2 kmh 29.96 in1014.6 mb 0.00 in0.0 mm 0.00 in0.0 mm 0.00 in0.0 mm
12:33 PM 74.9°F23.8°C 62.9°F17.2°C 48% Calm Calm -- 29.96 in1014.6 mb 0.00 in0.0 mm 0.00 in0.0 mm 0.00 in0.0 mm
12:36 PM 74.2°F23.4°C 62.3°F16.8°C 47% 1.2 mph SW1.9 kmh SW 1.2 mph1.9 kmh 29.95 in1014.2 mb 0.00 in0.0 mm 0.00 in0.0 mm 0.00 in0.0 mm
12:39 PM 76.3°F24.6°C 64.3°F17.9°C 49% 2.0 mph SW3.2 kmh SW 2.0 mph3.2 kmh 29.96 in1014.6 mb 0.00 in0.0 mm 0.00 in0.0 mm 0.00 in0.0 mm
12:42 PM 76.4°F24.7°C 63.6°F17.6°C 49% 2.4 mph SW3.9 kmh SW 2.4 mph3.9 kmh 29.96 in1014.6 mb 0.00 in0.0 mm 0.00 in0.0 mm 0.00 in0.0 mm
12:45 PM 74.8°F23.8°C 62.0°F16.7°C 47% 2.0 mph SE3.2 kmh SE 2.0 mph3.2 kmh 29.95 in1014.2 mb 0.00 in0.0 mm 0.00 in0.0 mm 0.00 in0.0 mm
12:48 PM 75.2°F24.0°C 61.8°F16.6°C 46% 1.6 mph SE2.6 kmh SE 1.6 mph2.6 kmh 29.96 in1014.6 mb 0.00 in0.0 mm 0.00 in0.0 mm 0.00 in0.0 mm
12:54 PM 74.6°F23.7°C 59.8°F15.4°C 42% 0.8 mph NNW1.3 kmh NNW 0.8 mph1.3 kmh 29.96 in1014.6 mb 0.00 in0.0 mm 0.00 in0.0 mm 0.00 in0.0 mm
12:57 PM 74.4°F23.6°C 62.6°F17.0°C 46% Calm Calm -- 29.95 in1014.2 mb 0.00 in0.0 mm 0.00 in0.0 mm 0.00 in0.0 mm
01:00 PM 75.9°F24.4°C 63.3°F17.4°C 47% 3.2 mph SSW5.1 kmh SSW 3.2 mph5.1 kmh 29.96 in1014.6 mb 0.00 in0.0 mm 0.00 in0.0 mm 0.00 in0.0 mm
01:03 PM 75.7°F24.3°C 63.8°F17.7°C 46% 1.9 mph NNW3.1 kmh NNW 2.1 mph3.4 kmh 29.96 in1014.6 mb 0.00 in0.0 mm 0.00 in0.0 mm 0.00 in0.0 mm
01:06 PM 76.8°F24.9°C 63.9°F17.7°C 46% 0.4 mph NNW0.6 kmh NNW 0.4 mph0.6 kmh 29.95 in1014.2 mb 0.00 in0.0 mm 0.00 in0.0 mm 0.00 in0.0 mm
01:09 PM 75.7°F24.3°C 61.8°F16.6°C 42% 1.6 mph SE2.6 kmh SE 1.6 mph2.6 kmh 29.95 in1014.2 mb 0.00 in0.0 mm 0.00 in0.0 mm 0.00 in0.0 mm
01:12 PM 75.5°F24.2°C 62.1°F16.7°C 42% Calm Calm -- 29.95 in1014.2 mb 0.00 in0.0 mm 0.00 in0.0 mm 0.00 in0.0 mm
01:15 PM 76.0°F24.4°C 63.1°F17.3°C 43% 2.4 mph NNW3.9 kmh NNW 2.4 mph3.9 kmh 29.95 in1014.2 mb 0.00 in0.0 mm 0.00 in0.0 mm 0.00 in0.0 mm
01:18 PM 76.8°F24.9°C 61.9°F16.6°C 41% Calm Calm -- 29.95 in1014.2 mb 0.00 in0.0 mm 0.00 in0.0 mm 0.00 in0.0 mm
01:21 PM 75.4°F24.1°C 61.6°F16.4°C 41% Calm Calm -- 29.95 in1014.2 mb 0.00 in0.0 mm 0.00 in0.0 mm 0.00 in0.0 mm
01:24 PM 74.8°F23.8°C 60.6°F15.9°C 39% 1.2 mph SE1.9 kmh SE 1.2 mph1.9 kmh 29.95 in1014.2 mb 0.00 in0.0 mm 0.00 in0.0 mm 0.00 in0.0 mm
01:30 PM 75.7°F24.3°C 64.1°F17.8°C 45% 1.2 mph SW1.9 kmh SW 1.2 mph1.9 kmh 29.95 in1014.2 mb 0.00 in0.0 mm 0.00 in0.0 mm 0.00 in0.0 mm
01:33 PM 76.4°F24.7°C 64.6°F18.1°C 45% 3.6 mph SW5.8 kmh SW 3.7 mph6.0 kmh 29.95 in1014.2 mb 0.00 in0.0 mm 0.00 in0.0 mm 0.00 in0.0 mm
01:36 PM 75.4°F24.1°C 63.6°F17.6°C 43% 7.3 mph WSW11.7 kmh WSW 7.4 mph11.9 kmh 29.95 in1014.2 mb 0.00 in0.0 mm 0.00 in0.0 mm 0.00 in0.0 mm
01:39 PM 74.4°F23.6°C 62.0°F16.7°C 41% 1.6 mph NW2.6 kmh NW 1.6 mph2.6 kmh 29.95 in1014.2 mb 0.00 in0.0 mm 0.00 in0.0 mm 0.00 in0.0 mm
01:42 PM 72.8°F22.7°C 62.7°F17.1°C 42% 1.6 mph NW2.6 kmh NW 1.6 mph2.6 kmh 29.95 in1014.2 mb 0.00 in0.0 mm 0.00 in0.0 mm 0.00 in0.0 mm
01:45 PM 72.7°F22.6°C 60.7°F15.9°C 41% Calm Calm -- 29.94 in1013.9 mb 0.00 in0.0 mm 0.00 in0.0 mm 0.00 in0.0 mm
01:48 PM 73.4°F23.0°C 62.3°F16.8°C 43% 1.6 mph NNE2.6 kmh NNE 1.6 mph2.6 kmh 29.95 in1014.2 mb 0.00 in0.0 mm 0.00 in0.0 mm 0.00 in0.0 mm
01:54 PM 74.9°F23.8°C 62.4°F16.9°C 41% Calm Calm -- 29.94 in1013.9 mb 0.00 in0.0 mm 0.00 in0.0 mm 0.00 in0.0 mm
01:57 PM 74.5°F23.6°C 63.2°F17.3°C 43% 1.2 mph SSW1.9 kmh SSW 1.2 mph1.9 kmh 29.94 in1013.9 mb 0.00 in0.0 mm 0.00 in0.0 mm 0.00 in0.0 mm
02:00 PM 76.2°F24.6°C 63.2°F17.3°C 42% 3.2 mph W5.1 kmh W 3.3 mph5.3 kmh 29.94 in1013.9 mb 0.00 in0.0 mm 0.00 in0.0 mm 0.00 in0.0 mm
02:03 PM 76.7°F24.8°C 63.4°F17.4°C 42% 1.5 mph WNW2.4 kmh WNW 1.5 mph2.4 kmh 29.94 in1013.9 mb 0.00 in0.0 mm 0.00 in0.0 mm 0.00 in0.0 mm
02:06 PM 75.4°F24.1°C 63.4°F17.4°C 42% 1.9 mph NNW3.1 kmh NNW 2.0 mph3.2 kmh 29.94 in1013.9 mb 0.00 in0.0 mm 0.00 in0.0 mm 0.00 in0.0 mm
02:09 PM 76.2°F24.6°C 63.9°F17.7°C 42% 3.1 mph NNW5.0 kmh NNW 3.1 mph5.0 kmh 29.94 in1013.9 mb 0.00 in0.0 mm 0.00 in0.0 mm 0.00 in0.0 mm
02:12 PM 75.8°F24.3°C 63.1°F17.3°C 41% 2.3 mph WNW3.7 kmh WNW 2.3 mph3.7 kmh 29.94 in1013.9 mb 0.00 in0.0 mm 0.00 in0.0 mm 0.00 in0.0 mm
02:15 PM 75.3°F24.1°C 63.1°F17.3°C 41% 3.5 mph NNW5.6 kmh NNW 3.5 mph5.6 kmh 29.94 in1013.9 mb 0.00 in0.0 mm 0.00 in0.0 mm 0.00 in0.0 mm
02:18 PM 76.9°F24.9°C 63.5°F17.5°C 41% 1.9 mph NNW3.1 kmh NNW 1.9 mph3.1 kmh 29.94 in1013.9 mb 0.00 in0.0 mm 0.00 in0.0 mm 0.00 in0.0 mm
02:21 PM 75.0°F23.9°C 63.1°F17.3°C 41% 0.8 mph NNW1.3 kmh NNW 0.8 mph1.3 kmh 29.94 in1013.9 mb 0.00 in0.0 mm 0.00 in0.0 mm 0.00 in0.0 mm
02:24 PM 76.3°F24.6°C 61.9°F16.6°C 39% 6.6 mph WSW10.6 kmh WSW 6.6 mph10.6 kmh 29.94 in1013.9 mb 0.00 in0.0 mm 0.00 in0.0 mm 0.00 in0.0 mm
02:27 PM 77.2°F25.1°C 63.7°F17.6°C 41% 1.6 mph NW2.6 kmh NW 1.6 mph2.6 kmh 29.94 in1013.9 mb 0.00 in0.0 mm 0.00 in0.0 mm 0.00 in0.0 mm
02:30 PM 76.2°F24.6°C 63.9°F17.7°C 42% 3.8 mph NNW6.1 kmh NNW 3.9 mph6.3 kmh 29.94 in1013.9 mb 0.00 in0.0 mm 0.00 in0.0 mm 0.00 in0.0 mm
02:33 PM 76.4°F24.7°C 63.6°F17.6°C 42% 2.7 mph SW4.3 kmh SW 2.7 mph4.3 kmh 29.94 in1013.9 mb 0.00 in0.0 mm 0.00 in0.0 mm 0.00 in0.0 mm
02:36 PM 76.9°F24.9°C 62.7°F17.1°C 41% 1.5 mph SW2.4 kmh SW 1.6 mph2.6 kmh 29.94 in1013.9 mb 0.00 in0.0 mm 0.00 in0.0 mm 0.00 in0.0 mm
02:39 PM 76.4°F24.7°C 62.2°F16.8°C 39% Calm Calm -- 29.95 in1014.2 mb 0.00 in0.0 mm 0.00 in0.0 mm 0.00 in0.0 mm
02:45 PM 77.3°F25.2°C 62.8°F17.1°C 40% 2.0 mph WSW3.2 kmh WSW 2.0 mph3.2 kmh 29.94 in1013.9 mb 0.00 in0.0 mm 0.00 in0.0 mm 0.00 in0.0 mm
02:48 PM 77.5°F25.3°C 63.4°F17.4°C 40% 3.6 mph NW5.8 kmh NW 3.7 mph6.0 kmh 29.94 in1013.9 mb 0.00 in0.0 mm 0.00 in0.0 mm 0.00 in0.0 mm
02:51 PM 78.1°F25.6°C 63.3°F17.4°C 40% 1.2 mph SW1.9 kmh SW 1.2 mph1.9 kmh 29.94 in1013.9 mb 0.00 in0.0 mm 0.00 in0.0 mm 0.00 in0.0 mm
02:54 PM 76.6°F24.8°C 63.1°F17.3°C 40% 1.6 mph NNW2.6 kmh NNW 1.6 mph2.6 kmh 29.94 in1013.9 mb 0.00 in0.0 mm 0.00 in0.0 mm 0.00 in0.0 mm
02:57 PM 75.0°F23.9°C 63.0°F17.2°C 41% 1.6 mph SSW2.6 kmh SSW 1.6 mph2.6 kmh 29.94 in1013.9 mb 0.00 in0.0 mm 0.00 in0.0 mm 0.00 in0.0 mm
03:00 PM 74.0°F23.3°C 60.3°F15.7°C 39% 4.8 mph WSW7.7 kmh WSW 4.9 mph7.9 kmh 29.94 in1013.9 mb 0.00 in0.0 mm 0.00 in0.0 mm 0.00 in0.0 mm
03:03 PM 75.0°F23.9°C 61.4°F16.3°C 40% 3.2 mph WSW5.1 kmh WSW 3.3 mph5.3 kmh 29.94 in1013.9 mb 0.00 in0.0 mm 0.00 in0.0 mm 0.00 in0.0 mm
03:06 PM 77.2°F25.1°C 62.5°F16.9°C 42% 2.0 mph NNW3.2 kmh NNW 2.0 mph3.2 kmh 29.94 in1013.9 mb 0.00 in0.0 mm 0.00 in0.0 mm 0.00 in0.0 mm
03:09 PM 76.8°F24.9°C 62.0°F16.7°C 40% 2.0 mph W3.2 kmh W 2.0 mph3.2 kmh 29.95 in1014.2 mb 0.00 in0.0 mm 0.00 in0.0 mm 0.00 in0.0 mm
03:12 PM 78.0°F25.6°C 60.8°F16.0°C 39% 0.4 mph NNW0.6 kmh NNW 0.4 mph0.6 kmh 29.94 in1013.9 mb 0.00 in0.0 mm 0.00 in0.0 mm 0.00 in0.0 mm
03:15 PM 77.8°F25.4°C 62.2°F16.8°C 40% 3.6 mph WSW5.8 kmh WSW 3.7 mph6.0 kmh 29.94 in1013.9 mb 0.00 in0.0 mm 0.00 in0.0 mm 0.00 in0.0 mm
03:21 PM 75.0°F23.9°C 62.0°F16.7°C 40% 2.0 mph W3.2 kmh W 2.0 mph3.2 kmh 29.94 in1013.9 mb 0.00 in0.0 mm 0.00 in0.0 mm 0.00 in0.0 mm
03:24 PM 75.7°F24.3°C 61.7°F16.5°C 41% 2.0 mph NNW3.2 kmh NNW 2.0 mph3.2 kmh 29.94 in1013.9 mb 0.00 in0.0 mm 0.00 in0.0 mm 0.00 in0.0 mm
03:27 PM 74.6°F23.7°C 62.2°F16.8°C 42% 1.2 mph WNW1.9 kmh WNW 1.2 mph1.9 kmh 29.94 in1013.9 mb 0.00 in0.0 mm 0.00 in0.0 mm 0.00 in0.0 mm
03:30 PM 72.7°F22.6°C 62.9°F17.2°C 43% 3.7 mph 6.0 kmh 3.7 mph6.0 kmh 29.94 in1013.9 mb 0.00 in0.0 mm 0.00 in0.0 mm 0.00 in0.0 mm
03:33 PM 75.9°F24.4°C 62.7°F17.1°C 43% 1.2 mph NW1.9 kmh NW 1.2 mph1.9 kmh 29.94 in1013.9 mb 0.00 in0.0 mm 0.00 in0.0 mm 0.00 in0.0 mm
03:36 PM 77.8°F25.4°C 63.6°F17.6°C 43% 2.4 mph 3.9 kmh 2.4 mph3.9 kmh 29.94 in1013.9 mb 0.00 in0.0 mm 0.00 in0.0 mm 0.00 in0.0 mm
03:39 PM 77.2°F25.1°C 62.3°F16.8°C 42% 2.4 mph NW3.9 kmh NW 2.4 mph3.9 kmh 29.94 in1013.9 mb 0.00 in0.0 mm 0.00 in0.0 mm 0.00 in0.0 mm
03:42 PM 75.7°F24.3°C 62.5°F16.9°C 42% 3.2 mph 5.1 kmh 3.2 mph5.1 kmh 29.94 in1013.9 mb 0.00 in0.0 mm 0.00 in0.0 mm 0.00 in0.0 mm
03:45 PM 77.2°F25.1°C 62.2°F16.8°C 42% 1.6 mph NNW2.6 kmh NNW 1.6 mph2.6 kmh 29.94 in1013.9 mb 0.00 in0.0 mm 0.00 in0.0 mm 0.00 in0.0 mm
03:48 PM 78.0°F25.6°C 63.0°F17.2°C 42% 0.8 mph W1.3 kmh W 0.8 mph1.3 kmh 29.94 in1013.9 mb 0.00 in0.0 mm 0.00 in0.0 mm 0.00 in0.0 mm
03:51 PM 78.0°F25.6°C 62.8°F17.1°C 42% 1.2 mph SSW1.9 kmh SSW 1.2 mph1.9 kmh 29.94 in1013.9 mb 0.00 in0.0 mm 0.00 in0.0 mm 0.00 in0.0 mm
03:54 PM 80.7°F27.1°C 62.8°F17.1°C 41% 3.6 mph NW5.8 kmh NW 3.7 mph6.0 kmh 29.94 in1013.9 mb 0.00 in0.0 mm 0.00 in0.0 mm 0.00 in0.0 mm
03:57 PM 78.4°F25.8°C 62.9°F17.2°C 41% 6.0 mph NNW9.7 kmh NNW 6.0 mph9.7 kmh 29.94 in1013.9 mb 0.00 in0.0 mm 0.00 in0.0 mm 0.00 in0.0 mm
04:00 PM 77.8°F25.4°C 62.5°F16.9°C 41% 4.8 mph 7.7 kmh 4.8 mph7.7 kmh 29.94 in1013.9 mb 0.00 in0.0 mm 0.00 in0.0 mm 0.00 in0.0 mm
04:03 PM 79.6°F26.4°C 63.7°F17.6°C 42% 1.9 mph SW3.1 kmh SW 1.9 mph3.1 kmh 29.94 in1013.9 mb 0.00 in0.0 mm 0.00 in0.0 mm 0.00 in0.0 mm
04:06 PM 78.4°F25.8°C 62.8°F17.1°C 41% Calm Calm -- 29.94 in1013.9 mb 0.00 in0.0 mm 0.00 in0.0 mm 0.00 in0.0 mm
04:09 PM 78.8°F26.0°C 61.3°F16.3°C 39% Calm Calm -- 29.94 in1013.9 mb 0.00 in0.0 mm 0.00 in0.0 mm 0.00 in0.0 mm
04:12 PM 80.7°F27.1°C 62.6°F17.0°C 41% 4.8 mph NNW7.7 kmh NNW 4.8 mph7.7 kmh 29.94 in1013.9 mb 0.00 in0.0 mm 0.00 in0.0 mm 0.00 in0.0 mm
04:15 PM 80.7°F27.1°C 63.2°F17.3°C 42% 2.0 mph NNW3.2 kmh NNW 2.0 mph3.2 kmh 29.94 in1013.9 mb 0.00 in0.0 mm 0.00 in0.0 mm 0.00 in0.0 mm
04:18 PM 81.1°F27.3°C 62.3°F16.8°C 40% 1.6 mph 2.6 kmh 1.6 mph2.6 kmh 29.94 in1013.9 mb 0.00 in0.0 mm 0.00 in0.0 mm 0.00 in0.0 mm
04:24 PM 76.9°F24.9°C 63.5°F17.5°C 41% 0.8 mph NNW1.3 kmh NNW 0.8 mph1.3 kmh 29.94 in1013.9 mb 0.00 in0.0 mm 0.00 in0.0 mm 0.00 in0.0 mm
04:27 PM 76.7°F24.8°C 60.7°F15.9°C 38% Calm Calm -- 29.94 in1013.9 mb 0.00 in0.0 mm 0.00 in0.0 mm 0.00 in0.0 mm
04:30 PM 75.8°F24.3°C 62.1°F16.7°C 41% Calm Calm -- 29.94 in1013.9 mb 0.00 in0.0 mm 0.00 in0.0 mm 0.00 in0.0 mm
04:36 PM 78.6°F25.9°C 62.9°F17.2°C 43% 0.4 mph ENE0.6 kmh ENE 0.4 mph0.6 kmh 29.94 in1013.9 mb 0.00 in0.0 mm 0.00 in0.0 mm 0.00 in0.0 mm
04:39 PM 78.7°F25.9°C 63.1°F17.3°C 44% 2.4 mph 3.9 kmh 2.4 mph3.9 kmh 29.94 in1013.9 mb 0.00 in0.0 mm 0.00 in0.0 mm 0.00 in0.0 mm
04:42 PM 79.8°F26.6°C 62.9°F17.2°C 43% 1.6 mph 2.6 kmh 1.6 mph2.6 kmh 29.94 in1013.9 mb 0.00 in0.0 mm 0.00 in0.0 mm 0.00 in0.0 mm
04:45 PM 77.9°F25.5°C 63.5°F17.5°C 43% 0.8 mph 1.3 kmh 0.8 mph1.3 kmh 29.94 in1013.9 mb 0.00 in0.0 mm 0.00 in0.0 mm 0.00 in0.0 mm
04:48 PM 77.8°F25.4°C 62.1°F16.7°C 42% Calm Calm -- 29.94 in1013.9 mb 0.00 in0.0 mm 0.00 in0.0 mm 0.00 in0.0 mm
04:51 PM 78.4°F25.8°C 63.3°F17.4°C 44% Calm Calm -- 29.94 in1013.9 mb 0.00 in0.0 mm 0.00 in0.0 mm 0.00 in0.0 mm
04:57 PM 78.0°F25.6°C 63.4°F17.4°C 43% 3.1 mph NNW5.0 kmh NNW 3.1 mph5.0 kmh 29.94 in1013.9 mb 0.00 in0.0 mm 0.00 in0.0 mm 0.00 in0.0 mm
05:00 PM 79.3°F26.3°C 63.6°F17.6°C 45% 1.6 mph W2.6 kmh W 1.6 mph2.6 kmh 29.94 in1013.9 mb 0.00 in0.0 mm 0.00 in0.0 mm 0.00 in0.0 mm
05:03 PM 79.6°F26.4°C 63.0°F17.2°C 43% 1.6 mph NNW2.6 kmh NNW 1.6 mph2.6 kmh 29.94 in1013.9 mb 0.00 in0.0 mm 0.00 in0.0 mm 0.00 in0.0 mm
05:06 PM 79.0°F26.1°C 63.5°F17.5°C 44% 2.4 mph SW3.9 kmh SW 2.4 mph3.9 kmh 29.94 in1013.9 mb 0.00 in0.0 mm 0.00 in0.0 mm 0.00 in0.0 mm
05:09 PM 76.8°F24.9°C 60.6°F15.9°C 41% 3.2 mph WSW5.1 kmh WSW 3.3 mph5.3 kmh 29.94 in1013.9 mb 0.00 in0.0 mm 0.00 in0.0 mm 0.00 in0.0 mm
05:12 PM 78.7°F25.9°C 61.9°F16.6°C 42% 3.6 mph NNW5.8 kmh NNW 3.6 mph5.8 kmh 29.94 in1013.9 mb 0.00 in0.0 mm 0.00 in0.0 mm 0.00 in0.0 mm
05:15 PM 79.0°F26.1°C 61.3°F16.3°C 42% 4.0 mph WSW6.4 kmh WSW 4.0 mph6.4 kmh 29.94 in1013.9 mb 0.00 in0.0 mm 0.00 in0.0 mm 0.00 in0.0 mm
05:18 PM 79.8°F26.6°C 62.1°F16.7°C 43% 4.0 mph WSW6.4 kmh WSW 4.0 mph6.4 kmh 29.94 in1013.9 mb 0.00 in0.0 mm 0.00 in0.0 mm 0.00 in0.0 mm
05:21 PM 79.0°F26.1°C 61.3°F16.3°C 42% 2.4 mph NNW3.9 kmh NNW 2.4 mph3.9 kmh 29.94 in1013.9 mb 0.00 in0.0 mm 0.00 in0.0 mm 0.00 in0.0 mm
05:24 PM 77.2°F25.1°C 62.9°F17.2°C 44% 2.4 mph NNW3.9 kmh NNW 2.4 mph3.9 kmh 29.94 in1013.9 mb 0.00 in0.0 mm 0.00 in0.0 mm 0.00 in0.0 mm
05:27 PM 77.1°F25.1°C 61.5°F16.4°C 43% 0.4 mph SW0.6 kmh SW 0.4 mph0.6 kmh 29.94 in1013.9 mb 0.00 in0.0 mm 0.00 in0.0 mm 0.00 in0.0 mm
05:30 PM 77.3°F25.2°C 61.6°F16.4°C 43% Calm Calm -- 29.94 in1013.9 mb 0.00 in0.0 mm 0.00 in0.0 mm 0.00 in0.0 mm
05:33 PM 76.0°F24.4°C 60.9°F16.1°C 43% 0.8 mph WSW1.3 kmh WSW 0.8 mph1.3 kmh 29.93 in1013.5 mb 0.00 in0.0 mm 0.00 in0.0 mm 0.00 in0.0 mm
05:36 PM 76.9°F24.9°C 61.5°F16.4°C 45% 4.4 mph W7.1 kmh W 4.5 mph7.2 kmh 29.94 in1013.9 mb 0.00 in0.0 mm 0.00 in0.0 mm 0.00 in0.0 mm
05:39 PM 77.7°F25.4°C 62.0°F16.7°C 44% 0.8 mph NNW1.3 kmh NNW 0.8 mph1.3 kmh 29.94 in1013.9 mb 0.00 in0.0 mm 0.00 in0.0 mm 0.00 in0.0 mm
05:42 PM 77.3°F25.2°C 60.6°F15.9°C 43% 0.8 mph WNW1.3 kmh WNW 0.8 mph1.3 kmh 29.94 in1013.9 mb 0.00 in0.0 mm 0.00 in0.0 mm 0.00 in0.0 mm
05:45 PM 76.2°F24.6°C 60.3°F15.7°C 42% 2.8 mph WSW4.5 kmh WSW 2.8 mph4.5 kmh 29.94 in1013.9 mb 0.00 in0.0 mm 0.00 in0.0 mm 0.00 in0.0 mm
05:48 PM 76.6°F24.8°C 60.4°F15.8°C 43% 2.3 mph NNW3.7 kmh NNW 2.3 mph3.7 kmh 29.94 in1013.9 mb 0.00 in0.0 mm 0.00 in0.0 mm 0.00 in0.0 mm
05:51 PM 76.8°F24.9°C 61.1°F16.2°C 43% 1.5 mph SW2.4 kmh SW 1.6 mph2.6 kmh 29.94 in1013.9 mb 0.00 in0.0 mm 0.00 in0.0 mm 0.00 in0.0 mm
05:54 PM 76.0°F24.4°C 61.5°F16.4°C 44% 2.7 mph SW4.3 kmh SW 2.9 mph4.7 kmh 29.94 in1013.9 mb 0.00 in0.0 mm 0.00 in0.0 mm 0.00 in0.0 mm
05:57 PM 75.8°F24.3°C 60.9°F16.1°C 44% 0.4 mph NNW0.6 kmh NNW 0.4 mph0.6 kmh 29.94 in1013.9 mb 0.00 in0.0 mm 0.00 in0.0 mm 0.00 in0.0 mm
06:00 PM 75.9°F24.4°C 62.0°F16.7°C 46% 2.7 mph W4.3 kmh W 2.7 mph4.3 kmh 29.94 in1013.9 mb 0.00 in0.0 mm 0.00 in0.0 mm 0.00 in0.0 mm
06:03 PM 75.7°F24.3°C 61.3°F16.3°C 44% 0.4 mph NNW0.6 kmh NNW 0.4 mph0.6 kmh 29.94 in1013.9 mb 0.00 in0.0 mm 0.00 in0.0 mm 0.00 in0.0 mm
06:06 PM 75.4°F24.1°C 60.8°F16.0°C 44% Calm Calm -- 29.94 in1013.9 mb 0.00 in0.0 mm 0.00 in0.0 mm 0.00 in0.0 mm
06:09 PM 75.4°F24.1°C 61.6°F16.4°C 45% 0.4 mph SW0.6 kmh SW 0.4 mph0.6 kmh 29.94 in1013.9 mb 0.00 in0.0 mm 0.00 in0.0 mm 0.00 in0.0 mm
06:12 PM 76.9°F24.9°C 62.0°F16.7°C 46% 0.4 mph WSW0.6 kmh WSW 0.4 mph0.6 kmh 29.94 in1013.9 mb 0.00 in0.0 mm 0.00 in0.0 mm 0.00 in0.0 mm
06:18 PM 76.1°F24.5°C 61.4°F16.3°C 44% 3.2 mph W5.1 kmh W 3.3 mph5.3 kmh 29.94 in1013.9 mb 0.00 in0.0 mm 0.00 in0.0 mm 0.00 in0.0 mm
06:21 PM 75.3°F24.1°C 60.2°F15.7°C 44% 2.0 mph W3.2 kmh W 2.0 mph3.2 kmh 29.94 in1013.9 mb 0.00 in0.0 mm 0.00 in0.0 mm 0.00 in0.0 mm
06:24 PM 75.8°F24.3°C 61.9°F16.6°C 45% 2.0 mph NNW3.2 kmh NNW 2.0 mph3.2 kmh 29.94 in1013.9 mb 0.00 in0.0 mm 0.00 in0.0 mm 0.00 in0.0 mm
06:27 PM 76.0°F24.4°C 61.3°F16.3°C 45% 2.4 mph SW3.9 kmh SW 2.4 mph3.9 kmh 29.94 in1013.9 mb 0.00 in0.0 mm 0.00 in0.0 mm 0.00 in0.0 mm
06:30 PM 75.3°F24.1°C 61.2°F16.2°C 44% 2.8 mph WSW4.5 kmh WSW 2.8 mph4.5 kmh 29.94 in1013.9 mb 0.00 in0.0 mm 0.00 in0.0 mm 0.00 in0.0 mm
06:33 PM 74.6°F23.7°C 60.4°F15.8°C 44% 2.0 mph SW3.2 kmh SW 2.0 mph3.2 kmh 29.94 in1013.9 mb 0.00 in0.0 mm 0.00 in0.0 mm 0.00 in0.0 mm
06:36 PM 74.5°F23.6°C 60.3°F15.7°C 45% 3.2 mph SSW5.1 kmh SSW 3.2 mph5.1 kmh 29.94 in1013.9 mb 0.00 in0.0 mm 0.00 in0.0 mm 0.00 in0.0 mm
06:39 PM 74.3°F23.5°C 60.9°F16.1°C 44% 2.8 mph NNW4.5 kmh NNW 2.9 mph4.7 kmh 29.94 in1013.9 mb 0.00 in0.0 mm 0.00 in0.0 mm 0.00 in0.0 mm
06:42 PM 74.2°F23.4°C 61.4°F16.3°C 46% 3.1 mph SW5.0 kmh SW 3.1 mph5.0 kmh 29.94 in1013.9 mb 0.00 in0.0 mm 0.00 in0.0 mm 0.00 in0.0 mm
06:45 PM 74.1°F23.4°C 60.6°F15.9°C 46% 1.1 mph SW1.8 kmh SW 1.2 mph1.9 kmh 29.94 in1013.9 mb 0.00 in0.0 mm 0.00 in0.0 mm 0.00 in0.0 mm
06:48 PM 74.2°F23.4°C 61.1°F16.2°C 46% 2.8 mph NNW4.5 kmh NNW 2.8 mph4.5 kmh 29.94 in1013.9 mb 0.00 in0.0 mm 0.00 in0.0 mm 0.00 in0.0 mm
06:51 PM 73.4°F23.0°C 60.9°F16.1°C 45% 2.8 mph WSW4.5 kmh WSW 2.8 mph4.5 kmh 29.94 in1013.9 mb 0.00 in0.0 mm 0.00 in0.0 mm 0.00 in0.0 mm
06:54 PM 73.6°F23.1°C 61.2°F16.2°C 46% 2.3 mph SW3.7 kmh SW 2.4 mph3.9 kmh 29.94 in1013.9 mb 0.00 in0.0 mm 0.00 in0.0 mm 0.00 in0.0 mm
06:57 PM 73.0°F22.8°C 59.6°F15.3°C 45% 2.7 mph NNW4.3 kmh NNW 2.7 mph4.3 kmh 29.94 in1013.9 mb 0.00 in0.0 mm 0.00 in0.0 mm 0.00 in0.0 mm
07:00 PM 73.1°F22.8°C 60.2°F15.7°C 46% 2.0 mph NNW3.2 kmh NNW 2.0 mph3.2 kmh 29.95 in1014.2 mb 0.00 in0.0 mm 0.00 in0.0 mm 0.00 in0.0 mm
07:03 PM 72.7°F22.6°C 60.6°F15.9°C 46% 2.4 mph W3.9 kmh W 2.4 mph3.9 kmh 29.95 in1014.2 mb 0.00 in0.0 mm 0.00 in0.0 mm 0.00 in0.0 mm
07:06 PM 73.1°F22.8°C 60.5°F15.8°C 46% 1.2 mph W1.9 kmh W 1.2 mph1.9 kmh 29.96 in1014.6 mb 0.00 in0.0 mm 0.00 in0.0 mm 0.00 in0.0 mm
07:09 PM 72.8°F22.7°C 61.1°F16.2°C 46% 0.4 mph W0.6 kmh W 0.4 mph0.6 kmh 29.96 in1014.6 mb 0.00 in0.0 mm 0.00 in0.0 mm 0.00 in0.0 mm
07:12 PM 72.8°F22.7°C 61.4°F16.3°C 47% 1.2 mph W1.9 kmh W 1.2 mph1.9 kmh 29.96 in1014.6 mb 0.00 in0.0 mm 0.00 in0.0 mm 0.00 in0.0 mm
07:15 PM 73.1°F22.8°C 60.2°F15.7°C 46% 2.4 mph NNW3.9 kmh NNW 2.4 mph3.9 kmh 29.96 in1014.6 mb 0.00 in0.0 mm 0.00 in0.0 mm 0.00 in0.0 mm
07:18 PM 72.8°F22.7°C 61.5°F16.4°C 47% 0.4 mph NNW0.6 kmh NNW 0.4 mph0.6 kmh 29.96 in1014.6 mb 0.00 in0.0 mm 0.00 in0.0 mm 0.00 in0.0 mm
07:21 PM 72.6°F22.6°C 60.4°F15.8°C 46% 0.8 mph NNW1.3 kmh NNW 0.8 mph1.3 kmh 29.96 in1014.6 mb 0.00 in0.0 mm 0.00 in0.0 mm 0.00 in0.0 mm
07:24 PM 71.4°F21.9°C 60.9°F16.1°C 47% 1.2 mph W1.9 kmh W 1.2 mph1.9 kmh 29.96 in1014.6 mb 0.00 in0.0 mm 0.00 in0.0 mm 0.00 in0.0 mm
07:30 PM 71.8°F22.1°C 60.5°F15.8°C 48% 0.8 mph NW1.3 kmh NW 0.8 mph1.3 kmh 29.96 in1014.6 mb 0.00 in0.0 mm 0.00 in0.0 mm 0.00 in0.0 mm
07:33 PM 71.7°F22.1°C 62.4°F16.9°C 49% 1.6 mph NNW2.6 kmh NNW 1.6 mph2.6 kmh 29.96 in1014.6 mb 0.00 in0.0 mm 0.00 in0.0 mm 0.00 in0.0 mm
07:36 PM 71.4°F21.9°C 61.1°F16.2°C 48% 0.8 mph NNW1.3 kmh NNW 0.8 mph1.3 kmh 29.96 in1014.6 mb 0.00 in0.0 mm 0.00 in0.0 mm 0.00 in0.0 mm
07:39 PM 71.5°F21.9°C 61.8°F16.6°C 48% 2.0 mph NNW3.2 kmh NNW 2.0 mph3.2 kmh 29.97 in1014.9 mb 0.00 in0.0 mm 0.00 in0.0 mm 0.00 in0.0 mm
07:42 PM 71.2°F21.8°C 62.3°F16.8°C 49% 0.4 mph NW0.6 kmh NW 0.4 mph0.6 kmh 29.96 in1014.6 mb 0.00 in0.0 mm 0.00 in0.0 mm 0.00 in0.0 mm
07:45 PM 70.9°F21.6°C 60.6°F15.9°C 48% Calm Calm -- 29.97 in1014.9 mb 0.00 in0.0 mm 0.00 in0.0 mm 0.00 in0.0 mm
07:48 PM 69.8°F21.0°C 62.4°F16.9°C 50% 1.2 mph NNW1.9 kmh NNW 1.2 mph1.9 kmh 29.97 in1014.9 mb 0.00 in0.0 mm 0.00 in0.0 mm 0.00 in0.0 mm
07:51 PM 68.1°F20.1°C 61.4°F16.3°C 50% Calm Calm -- 29.96 in1014.6 mb 0.00 in0.0 mm 0.00 in0.0 mm 0.00 in0.0 mm
07:54 PM 67.1°F19.5°C 61.8°F16.6°C 51% 0.4 mph NNW0.6 kmh NNW 0.4 mph0.6 kmh 29.96 in1014.6 mb 0.00 in0.0 mm 0.00 in0.0 mm 0.00 in0.0 mm
07:57 PM 66.3°F19.1°C 61.1°F16.2°C 52% Calm Calm -- 29.96 in1014.6 mb 0.00 in0.0 mm 0.00 in0.0 mm 0.00 in0.0 mm
08:00 PM 66.3°F19.1°C 62.3°F16.8°C 54% Calm Calm -- 29.96 in1014.6 mb 0.00 in0.0 mm 0.00 in0.0 mm 0.00 in0.0 mm
08:03 PM 65.2°F18.4°C 62.5°F16.9°C 55% Calm Calm -- 29.96 in1014.6 mb 0.00 in0.0 mm 0.00 in0.0 mm 0.00 in0.0 mm
08:06 PM 64.0°F17.8°C 62.5°F16.9°C 55% Calm Calm -- 29.97 in1014.9 mb 0.00 in0.0 mm 0.00 in0.0 mm 0.00 in0.0 mm
08:09 PM 64.4°F18.0°C 61.3°F16.3°C 55% Calm Calm -- 29.97 in1014.9 mb 0.00 in0.0 mm 0.00 in0.0 mm 0.00 in0.0 mm
08:12 PM 63.8°F17.7°C 61.1°F16.2°C 55% Calm Calm -- 29.97 in1014.9 mb 0.00 in0.0 mm 0.00 in0.0 mm 0.00 in0.0 mm
08:15 PM 62.9°F17.2°C 62.1°F16.7°C 56% Calm Calm -- 29.97 in1014.9 mb 0.00 in0.0 mm 0.00 in0.0 mm 0.00 in0.0 mm
08:18 PM 62.9°F17.2°C 62.1°F16.7°C 56% Calm Calm -- 29.97 in1014.9 mb 0.00 in0.0 mm 0.00 in0.0 mm 0.00 in0.0 mm
08:21 PM 62.4°F16.9°C 62.0°F16.7°C 57% Calm Calm -- 29.97 in1014.9 mb 0.00 in0.0 mm 0.00 in0.0 mm 0.00 in0.0 mm
08:24 PM 62.0°F16.7°C 61.0°F16.1°C 57% Calm Calm -- 29.97 in1014.9 mb 0.00 in0.0 mm 0.00 in0.0 mm 0.00 in0.0 mm
08:27 PM 61.5°F16.4°C 61.4°F16.3°C 57% Calm Calm -- 29.97 in1014.9 mb 0.00 in0.0 mm 0.00 in0.0 mm 0.00 in0.0 mm
08:30 PM 61.8°F16.6°C 61.3°F16.3°C 59% Calm Calm -- 29.97 in1014.9 mb 0.00 in0.0 mm 0.00 in0.0 mm 0.00 in0.0 mm
08:33 PM 61.1°F16.2°C 61.6°F16.4°C 59% Calm Calm -- 29.97 in1014.9 mb 0.00 in0.0 mm 0.00 in0.0 mm 0.00 in0.0 mm
08:36 PM 60.5°F15.8°C 61.5°F16.4°C 58% Calm Calm -- 29.98 in1015.2 mb 0.00 in0.0 mm 0.00 in0.0 mm 0.00 in0.0 mm
08:39 PM 60.9°F16.1°C 61.3°F16.3°C 59% Calm Calm -- 29.98 in1015.2 mb 0.00 in0.0 mm 0.00 in0.0 mm 0.00 in0.0 mm
08:42 PM 60.7°F15.9°C 61.1°F16.2°C 59% Calm Calm -- 29.99 in1015.6 mb 0.00 in0.0 mm 0.00 in0.0 mm 0.00 in0.0 mm
08:45 PM 60.4°F15.8°C 61.2°F16.2°C 59% Calm Calm -- 29.99 in1015.6 mb 0.00 in0.0 mm 0.00 in0.0 mm 0.00 in0.0 mm
08:48 PM 60.5°F15.8°C 60.3°F15.7°C 59% Calm Calm -- 29.99 in1015.6 mb 0.00 in0.0 mm 0.00 in0.0 mm 0.00 in0.0 mm
08:51 PM 61.4°F16.3°C 60.4°F15.8°C 59% 1.2 mph 1.9 kmh 1.2 mph1.9 kmh 29.99 in1015.6 mb 0.00 in0.0 mm 0.00 in0.0 mm 0.00 in0.0 mm
08:54 PM 60.0°F15.6°C 59.8°F15.4°C 58% Calm Calm -- 29.99 in1015.6 mb 0.00 in0.0 mm 0.00 in0.0 mm 0.00 in0.0 mm
08:57 PM 59.9°F15.5°C 60.2°F15.7°C 59% Calm Calm -- 29.99 in1015.6 mb 0.00 in0.0 mm 0.00 in0.0 mm 0.00 in0.0 mm
09:00 PM 59.7°F15.4°C 60.0°F15.6°C 60% 1.2 mph NNE1.9 kmh NNE 1.2 mph1.9 kmh 29.99 in1015.6 mb 0.00 in0.0 mm 0.00 in0.0 mm 0.00 in0.0 mm
09:03 PM 58.9°F14.9°C 60.4°F15.8°C 60% Calm Calm -- 29.99 in1015.6 mb 0.00 in0.0 mm 0.00 in0.0 mm 0.00 in0.0 mm
09:06 PM 59.3°F15.2°C 59.8°F15.4°C 61% Calm Calm -- 29.99 in1015.6 mb 0.00 in0.0 mm 0.00 in0.0 mm 0.00 in0.0 mm
09:09 PM 59.1°F15.1°C 59.5°F15.3°C 60% Calm Calm -- 29.99 in1015.6 mb 0.00 in0.0 mm 0.00 in0.0 mm 0.00 in0.0 mm
09:12 PM 59.6°F15.3°C 59.6°F15.3°C 61% Calm Calm -- 29.99 in1015.6 mb 0.00 in0.0 mm 0.00 in0.0 mm 0.00 in0.0 mm
09:15 PM 59.1°F15.1°C 59.9°F15.5°C 61% Calm Calm -- 30.00 in1015.9 mb 0.00 in0.0 mm 0.00 in0.0 mm 0.00 in0.0 mm
09:18 PM 58.7°F14.8°C 59.6°F15.3°C 62% Calm Calm -- 29.99 in1015.6 mb 0.00 in0.0 mm 0.00 in0.0 mm 0.00 in0.0 mm
09:21 PM 58.0°F14.4°C 59.7°F15.4°C 62% Calm Calm -- 30.00 in1015.9 mb 0.00 in0.0 mm 0.00 in0.0 mm 0.00 in0.0 mm
09:24 PM 57.2°F14.0°C 59.5°F15.3°C 62% Calm Calm -- 29.99 in1015.6 mb 0.00 in0.0 mm 0.00 in0.0 mm 0.00 in0.0 mm
09:27 PM 57.1°F13.9°C 59.5°F15.3°C 63% Calm Calm -- 29.99 in1015.6 mb 0.00 in0.0 mm 0.00 in0.0 mm 0.00 in0.0 mm
09:30 PM 56.6°F13.7°C 59.4°F15.2°C 63% Calm Calm -- 30.00 in1015.9 mb 0.00 in0.0 mm 0.00 in0.0 mm 0.00 in0.0 mm
09:33 PM 56.5°F13.6°C 59.8°F15.4°C 65% Calm Calm -- 30.00 in1015.9 mb 0.00 in0.0 mm 0.00 in0.0 mm 0.00 in0.0 mm
09:36 PM 56.1°F13.4°C 59.2°F15.1°C 64% Calm Calm -- 29.99 in1015.6 mb 0.00 in0.0 mm 0.00 in0.0 mm 0.00 in0.0 mm
09:39 PM 56.4°F13.6°C 59.1°F15.1°C 64% Calm Calm -- 30.00 in1015.9 mb 0.00 in0.0 mm 0.00 in0.0 mm 0.00 in0.0 mm
09:42 PM 56.1°F13.4°C 58.6°F14.8°C 64% Calm Calm -- 30.00 in1015.9 mb 0.00 in0.0 mm 0.00 in0.0 mm 0.00 in0.0 mm
09:45 PM 56.4°F13.6°C 58.9°F14.9°C 65% Calm Calm -- 30.00 in1015.9 mb 0.00 in0.0 mm 0.00 in0.0 mm 0.00 in0.0 mm
09:48 PM 55.5°F13.1°C 58.5°F14.7°C 64% Calm Calm -- 30.00 in1015.9 mb 0.00 in0.0 mm 0.00 in0.0 mm 0.00 in0.0 mm
09:51 PM 55.4°F13.0°C 58.7°F14.8°C 65% Calm Calm -- 30.00 in1015.9 mb 0.00 in0.0 mm 0.00 in0.0 mm 0.00 in0.0 mm
09:54 PM 54.8°F12.7°C 58.3°F14.6°C 65% Calm Calm -- 30.00 in1015.9 mb 0.00 in0.0 mm 0.00 in0.0 mm 0.00 in0.0 mm
09:57 PM 54.8°F12.7°C 58.1°F14.5°C 65% Calm Calm -- 30.00 in1015.9 mb 0.00 in0.0 mm 0.00 in0.0 mm 0.00 in0.0 mm
10:00 PM 55.0°F12.8°C 57.6°F14.2°C 65% Calm Calm -- 30.00 in1015.9 mb 0.00 in0.0 mm 0.00 in0.0 mm 0.00 in0.0 mm
10:03 PM 54.6°F12.6°C 57.7°F14.3°C 65% Calm Calm -- 30.00 in1015.9 mb 0.00 in0.0 mm 0.00 in0.0 mm 0.00 in0.0 mm
10:06 PM 54.8°F12.7°C 57.7°F14.3°C 66% Calm Calm -- 30.00 in1015.9 mb 0.00 in0.0 mm 0.00 in0.0 mm 0.00 in0.0 mm
10:09 PM 54.4°F12.4°C 57.5°F14.2°C 66% Calm Calm -- 30.01 in1016.3 mb 0.00 in0.0 mm 0.00 in0.0 mm 0.00 in0.0 mm
10:12 PM 54.8°F12.7°C 57.4°F14.1°C 66% Calm Calm -- 30.01 in1016.3 mb 0.00 in0.0 mm 0.00 in0.0 mm 0.00 in0.0 mm
10:15 PM 53.6°F12.0°C 57.6°F14.2°C 67% Calm Calm -- 30.01 in1016.3 mb 0.00 in0.0 mm 0.00 in0.0 mm 0.00 in0.0 mm
10:18 PM 53.9°F12.2°C 57.1°F13.9°C 66% Calm Calm -- 30.00 in1015.9 mb 0.00 in0.0 mm 0.00 in0.0 mm 0.00 in0.0 mm
10:21 PM 53.9°F12.2°C 57.2°F14.0°C 67% Calm Calm -- 30.01 in1016.3 mb 0.00 in0.0 mm 0.00 in0.0 mm 0.00 in0.0 mm
10:24 PM 53.9°F12.2°C 57.0°F13.9°C 67% Calm Calm -- 30.01 in1016.3 mb 0.00 in0.0 mm 0.00 in0.0 mm 0.00 in0.0 mm
10:27 PM 53.8°F12.1°C 57.2°F14.0°C 67% Calm Calm -- 30.01 in1016.3 mb 0.00 in0.0 mm 0.00 in0.0 mm 0.00 in0.0 mm
10:30 PM 53.3°F11.8°C 56.8°F13.8°C 67% Calm Calm -- 30.01 in1016.3 mb 0.00 in0.0 mm 0.00 in0.0 mm 0.00 in0.0 mm
10:33 PM 53.6°F12.0°C 56.6°F13.7°C 67% Calm Calm -- 30.01 in1016.3 mb 0.00 in0.0 mm 0.00 in0.0 mm 0.00 in0.0 mm
10:36 PM 53.5°F11.9°C 56.6°F13.7°C 67% Calm Calm -- 30.01 in1016.3 mb 0.00 in0.0 mm 0.00 in0.0 mm 0.00 in0.0 mm
10:39 PM 53.0°F11.7°C 56.4°F13.6°C 67% Calm Calm -- 30.01 in1016.3 mb 0.00 in0.0 mm 0.00 in0.0 mm 0.00 in0.0 mm
10:42 PM 52.8°F11.6°C 56.1°F13.4°C 67% Calm Calm -- 30.01 in1016.3 mb 0.00 in0.0 mm 0.00 in0.0 mm 0.00 in0.0 mm
10:45 PM 53.2°F11.8°C 56.4°F13.6°C 68% Calm Calm -- 30.01 in1016.3 mb 0.00 in0.0 mm 0.00 in0.0 mm 0.00 in0.0 mm
10:48 PM 52.7°F11.5°C 56.0°F13.3°C 68% Calm Calm -- 30.01 in1016.3 mb 0.00 in0.0 mm 0.00 in0.0 mm 0.00 in0.0 mm
10:51 PM 52.7°F11.5°C 56.1°F13.4°C 68% Calm Calm -- 30.02 in1016.6 mb 0.00 in0.0 mm 0.00 in0.0 mm 0.00 in0.0 mm
10:54 PM 52.0°F11.1°C 56.0°F13.3°C 68% Calm Calm -- 30.02 in1016.6 mb 0.00 in0.0 mm 0.00 in0.0 mm 0.00 in0.0 mm
10:57 PM 52.3°F11.3°C 55.9°F13.3°C 68% Calm Calm -- 30.02 in1016.6 mb 0.00 in0.0 mm 0.00 in0.0 mm 0.00 in0.0 mm
11:00 PM 52.5°F11.4°C 55.8°F13.2°C 69% Calm Calm -- 30.02 in1016.6 mb 0.00 in0.0 mm 0.00 in0.0 mm 0.00 in0.0 mm
11:03 PM 52.4°F11.3°C 55.8°F13.2°C 70% Calm Calm -- 30.03 in1016.9 mb 0.00 in0.0 mm 0.00 in0.0 mm 0.00 in0.0 mm
11:06 PM 52.4°F11.3°C 56.0°F13.3°C 70% Calm Calm -- 30.03 in1016.9 mb 0.00 in0.0 mm 0.00 in0.0 mm 0.00 in0.0 mm
11:09 PM 52.3°F11.3°C 56.3°F13.5°C 71% Calm Calm -- 30.03 in1016.9 mb 0.00 in0.0 mm 0.00 in0.0 mm 0.00 in0.0 mm
11:12 PM 52.4°F11.3°C 55.9°F13.3°C 71% Calm Calm -- 30.03 in1016.9 mb 0.00 in0.0 mm 0.00 in0.0 mm 0.00 in0.0 mm
11:15 PM 52.3°F11.3°C 56.1°F13.4°C 71% Calm Calm -- 30.03 in1016.9 mb 0.00 in0.0 mm 0.00 in0.0 mm 0.00 in0.0 mm
11:18 PM 52.1°F11.2°C 55.7°F13.2°C 70% Calm Calm -- 30.03 in1016.9 mb 0.00 in0.0 mm 0.00 in0.0 mm 0.00 in0.0 mm
11:21 PM 52.6°F11.4°C 55.8°F13.2°C 71% Calm Calm -- 30.03 in1016.9 mb 0.00 in0.0 mm 0.00 in0.0 mm 0.00 in0.0 mm
11:24 PM 52.0°F11.1°C 55.8°F13.2°C 71% Calm Calm -- 30.03 in1016.9 mb 0.00 in0.0 mm 0.00 in0.0 mm 0.00 in0.0 mm
11:27 PM 51.5°F10.8°C 55.5°F13.1°C 71% Calm Calm -- 30.03 in1016.9 mb 0.00 in0.0 mm 0.00 in0.0 mm 0.00 in0.0 mm
11:30 PM 51.6°F10.9°C 55.3°F12.9°C 71% Calm Calm -- 30.03 in1016.9 mb 0.00 in0.0 mm 0.00 in0.0 mm 0.00 in0.0 mm
11:33 PM 50.9°F10.5°C 55.3°F12.9°C 71% Calm Calm -- 30.03 in1016.9 mb 0.00 in0.0 mm 0.00 in0.0 mm 0.00 in0.0 mm
11:36 PM 51.5°F10.8°C 55.4°F13.0°C 71% Calm Calm -- 30.03 in1016.9 mb 0.00 in0.0 mm 0.00 in0.0 mm 0.00 in0.0 mm
11:39 PM 51.5°F10.8°C 55.1°F12.8°C 71% Calm Calm -- 30.03 in1016.9 mb 0.00 in0.0 mm 0.00 in0.0 mm 0.00 in0.0 mm
11:42 PM 52.1°F11.2°C 55.4°F13.0°C 72% Calm Calm -- 30.03 in1016.9 mb 0.00 in0.0 mm 0.00 in0.0 mm 0.00 in0.0 mm
11:45 PM 52.4°F11.3°C 55.4°F13.0°C 72% Calm Calm -- 30.03 in1016.9 mb 0.00 in0.0 mm 0.00 in0.0 mm 0.00 in0.0 mm
11:48 PM 52.0°F11.1°C 55.5°F13.1°C 72% Calm Calm -- 30.03 in1016.9 mb 0.00 in0.0 mm 0.00 in0.0 mm 0.00 in0.0 mm
11:51 PM 51.8°F11.0°C 55.1°F12.8°C 72% Calm Calm -- 30.03 in1016.9 mb 0.00 in0.0 mm 0.00 in0.0 mm 0.00 in0.0 mm
11:54 PM 52.1°F11.2°C 55.4°F13.0°C 72% Calm Calm -- 30.03 in1016.9 mb 0.00 in0.0 mm 0.00 in0.0 mm 0.00 in0.0 mm
11:57 PM 51.9°F11.1°C 55.8°F13.2°C 73% Calm Calm -- 30.03 in1016.9 mb 0.00 in0.0 mm 0.00 in0.0 mm 0.00 in0.0 mm